createdAt,value
2022-09-17T00:00:38.302Z,11.30
2022-09-17T00:01:34.176Z,11.27
2022-09-17T00:02:29.379Z,11.24
2022-09-17T00:03:25.285Z,11.18
2022-09-17T00:04:20.249Z,11.16
2022-09-17T00:05:15.597Z,11.21
2022-09-17T00:06:11.294Z,11.24
2022-09-17T00:07:06.450Z,11.26
2022-09-17T00:08:01.730Z,11.25
2022-09-17T00:08:58.135Z,11.24
2022-09-17T00:09:53.447Z,11.20
2022-09-17T00:10:49.299Z,11.19
2022-09-17T00:11:44.435Z,11.22
2022-09-17T00:12:39.596Z,11.27
2022-09-17T00:13:35.349Z,11.30
2022-09-17T00:14:30.522Z,11.34
2022-09-17T00:15:25.774Z,11.40
2022-09-17T00:16:21.000Z,11.45
2022-09-17T00:17:16.122Z,11.47
2022-09-17T00:18:11.299Z,11.47
2022-09-17T00:19:06.286Z,11.53
2022-09-17T00:20:01.319Z,11.57
2022-09-17T00:20:56.390Z,11.64
2022-09-17T00:21:51.412Z,11.70
2022-09-17T00:22:51.042Z,11.66
2022-09-17T00:23:46.253Z,11.60
2022-09-17T00:24:41.760Z,11.55
2022-09-17T00:25:37.361Z,11.51
2022-09-17T00:26:32.660Z,11.53
2022-09-17T00:27:27.921Z,11.51
2022-09-17T00:28:24.320Z,11.52
2022-09-17T00:29:19.638Z,11.51
2022-09-17T00:30:15.370Z,11.49
2022-09-17T00:31:10.654Z,11.45
2022-09-17T00:32:05.919Z,11.41
2022-09-17T00:33:01.663Z,11.39
2022-09-17T00:33:56.980Z,11.37
2022-09-17T00:34:52.706Z,11.35
2022-09-17T00:35:47.988Z,11.27
2022-09-17T00:36:43.416Z,11.22
2022-09-17T00:37:39.160Z,11.20
2022-09-17T00:38:34.346Z,11.21
2022-09-17T00:39:29.511Z,11.15
2022-09-17T00:40:25.815Z,11.11
2022-09-17T00:41:20.995Z,11.10
2022-09-17T00:42:16.862Z,11.11
2022-09-17T00:43:12.131Z,11.14
2022-09-17T00:44:07.316Z,11.19
2022-09-17T00:45:03.158Z,11.19
2022-09-17T00:45:58.333Z,11.20
2022-09-17T00:46:54.231Z,11.20
2022-09-17T00:47:49.501Z,11.21
2022-09-17T00:48:44.685Z,11.22
2022-09-17T00:49:40.535Z,11.24
2022-09-17T00:50:35.710Z,11.22
2022-09-17T00:51:30.842Z,11.13
2022-09-17T00:52:27.271Z,11.06
2022-09-17T00:53:22.441Z,11.07
2022-09-17T00:54:18.285Z,11.13
2022-09-17T00:55:13.444Z,11.19
2022-09-17T00:56:08.609Z,11.17
2022-09-17T00:57:04.469Z,11.14
2022-09-17T00:57:59.785Z,11.17
2022-09-17T00:58:55.755Z,11.19
2022-09-17T00:59:50.907Z,11.18
2022-09-17T01:00:46.289Z,11.13
2022-09-17T01:01:42.060Z,11.09
2022-09-17T01:02:37.226Z,11.17
2022-09-17T01:03:32.630Z,11.22
2022-09-17T01:04:28.642Z,11.25
2022-09-17T01:05:23.914Z,11.23
2022-09-17T01:06:19.140Z,11.23
2022-09-17T01:07:14.983Z,11.25
2022-09-17T01:08:10.276Z,11.30
2022-09-17T01:09:06.150Z,11.33
2022-09-17T01:10:01.303Z,11.31
2022-09-17T01:10:56.763Z,11.29
2022-09-17T01:11:52.221Z,11.25
2022-09-17T01:12:47.522Z,11.24
2022-09-17T01:13:42.685Z,11.22
2022-09-17T01:14:39.210Z,11.19
2022-09-17T01:15:34.404Z,11.16
2022-09-17T01:16:30.290Z,11.13
2022-09-17T01:17:25.417Z,11.11
2022-09-17T01:18:20.622Z,11.11
2022-09-17T01:19:16.350Z,11.10
2022-09-17T01:20:11.581Z,11.09
2022-09-17T01:21:06.721Z,11.10
2022-09-17T01:22:01.880Z,11.13
2022-09-17T01:22:57.051Z,11.17
2022-09-17T01:23:52.070Z,11.17
2022-09-17T01:24:47.104Z,11.22
2022-09-17T01:25:42.156Z,11.21
2022-09-17T01:26:37.231Z,11.18
2022-09-17T01:27:32.228Z,11.16
2022-09-17T01:28:27.240Z,11.11
2022-09-17T01:29:22.296Z,11.08
2022-09-17T01:30:17.367Z,11.04
2022-09-17T01:31:12.352Z,10.98
2022-09-17T01:32:07.402Z,10.97
2022-09-17T01:33:02.418Z,10.98
2022-09-17T01:33:57.436Z,11.02
2022-09-17T01:34:52.471Z,11.00
2022-09-17T01:35:47.484Z,10.98
2022-09-17T01:36:42.528Z,10.95
2022-09-17T01:37:37.685Z,10.95
2022-09-17T01:38:33.534Z,10.94
2022-09-17T01:39:28.595Z,10.94
2022-09-17T01:40:23.788Z,10.89
2022-09-17T01:41:18.952Z,10.86
2022-09-17T01:42:14.261Z,10.82
2022-09-17T01:43:09.395Z,10.84
2022-09-17T01:44:05.800Z,10.85
2022-09-17T01:45:01.244Z,10.81
2022-09-17T01:45:56.265Z,10.81
2022-09-17T01:46:51.507Z,10.86
2022-09-17T01:47:46.649Z,10.88
2022-09-17T01:48:42.077Z,10.88
2022-09-17T01:49:37.370Z,10.92
2022-09-17T01:50:32.366Z,10.95
2022-09-17T01:51:27.524Z,10.95
2022-09-17T01:52:22.809Z,10.90
2022-09-17T01:53:18.061Z,10.90
2022-09-17T01:54:13.219Z,10.91
2022-09-17T01:55:08.517Z,10.94
2022-09-17T01:56:03.657Z,10.97
2022-09-17T01:56:58.915Z,10.97
2022-09-17T01:57:54.181Z,10.96
2022-09-17T01:58:49.367Z,10.92
2022-09-17T01:59:44.632Z,10.90
2022-09-17T02:00:39.946Z,10.90
2022-09-17T02:01:35.056Z,10.90
2022-09-17T02:02:30.243Z,10.89
2022-09-17T02:03:25.385Z,10.91
2022-09-17T02:04:20.662Z,10.78
2022-09-17T02:05:16.136Z,10.71
2022-09-17T02:06:11.242Z,10.77
2022-09-17T02:07:06.357Z,10.80
2022-09-17T02:08:01.512Z,10.82
2022-09-17T02:08:56.945Z,10.83
2022-09-17T02:09:51.942Z,10.83
2022-09-17T02:10:46.986Z,10.83
2022-09-17T02:11:42.016Z,10.82
2022-09-17T02:12:37.151Z,10.87
2022-09-17T02:13:32.360Z,10.91
2022-09-17T02:14:27.227Z,10.91
2022-09-17T02:15:22.261Z,10.91
2022-09-17T02:16:17.295Z,10.91
2022-09-17T02:17:12.294Z,10.93
2022-09-17T02:18:07.315Z,10.99
2022-09-17T02:19:02.783Z,10.99
2022-09-17T02:19:57.391Z,10.97
2022-09-17T02:20:52.517Z,10.94
2022-09-17T02:21:47.679Z,10.88
2022-09-17T02:22:42.702Z,10.83
2022-09-17T02:23:37.846Z,10.80
2022-09-17T02:24:32.998Z,10.75
2022-09-17T02:25:27.996Z,10.68
2022-09-17T02:26:23.127Z,10.65
2022-09-17T02:27:18.852Z,10.61
2022-09-17T02:28:14.138Z,10.58
2022-09-17T02:29:09.270Z,10.56
2022-09-17T02:30:04.426Z,10.51
2022-09-17T02:30:59.788Z,10.47
2022-09-17T02:31:55.086Z,10.46
2022-09-17T02:32:50.104Z,10.54
2022-09-17T02:33:45.373Z,10.67
2022-09-17T02:34:40.570Z,10.76
2022-09-17T02:35:36.548Z,10.80
2022-09-17T02:36:31.725Z,10.85
2022-09-17T02:37:27.586Z,10.88
2022-09-17T02:38:22.875Z,10.86
2022-09-17T02:39:18.163Z,10.86
2022-09-17T02:40:13.956Z,10.93
2022-09-17T02:41:09.120Z,11.02
2022-09-17T02:42:04.276Z,11.08
2022-09-17T02:43:00.784Z,11.15
2022-09-17T02:43:55.991Z,11.22
2022-09-17T02:44:51.719Z,11.23
2022-09-17T02:45:46.978Z,11.19
2022-09-17T02:46:42.254Z,11.17
2022-09-17T02:47:37.992Z,11.14
2022-09-17T02:48:33.391Z,11.08
2022-09-17T02:49:28.982Z,11.06
2022-09-17T02:50:24.124Z,10.99
2022-09-17T02:51:19.446Z,10.90
2022-09-17T02:52:15.298Z,10.84
2022-09-17T02:53:10.486Z,10.80
2022-09-17T02:54:05.768Z,10.79
2022-09-17T02:55:02.153Z,10.78
2022-09-17T02:55:57.449Z,10.77
2022-09-17T02:56:53.287Z,10.79
2022-09-17T02:57:48.434Z,10.81
2022-09-17T02:58:43.599Z,10.81
2022-09-17T02:59:39.494Z,10.85
2022-09-17T03:00:34.668Z,10.95
2022-09-17T03:01:30.630Z,11.01
2022-09-17T03:02:25.797Z,11.03
2022-09-17T03:03:21.086Z,11.00
2022-09-17T03:04:16.984Z,10.96
2022-09-17T03:05:12.141Z,10.99
2022-09-17T03:06:07.418Z,11.02
2022-09-17T03:07:03.819Z,11.01
2022-09-17T03:07:59.130Z,10.98
2022-09-17T03:08:54.989Z,10.97
2022-09-17T03:09:50.281Z,11.00
2022-09-17T03:10:45.577Z,10.99
2022-09-17T03:11:41.341Z,10.94
2022-09-17T03:12:36.510Z,10.90
2022-09-17T03:13:32.378Z,10.82
2022-09-17T03:14:27.533Z,10.74
2022-09-17T03:15:22.836Z,10.68
2022-09-17T03:16:18.631Z,10.63
2022-09-17T03:17:13.807Z,10.57
2022-09-17T03:18:08.972Z,10.49
2022-09-17T03:19:05.508Z,10.45
2022-09-17T03:20:00.707Z,10.41
2022-09-17T03:20:56.570Z,10.38
2022-09-17T03:21:51.701Z,10.38
2022-09-17T03:22:46.906Z,10.38
2022-09-17T03:23:42.606Z,10.42
2022-09-17T03:24:37.947Z,10.54
2022-09-17T03:25:33.627Z,10.63
2022-09-17T03:26:28.919Z,10.70
2022-09-17T03:27:24.094Z,10.68
2022-09-17T03:28:19.961Z,10.69
2022-09-17T03:29:15.154Z,10.70
2022-09-17T03:30:10.298Z,10.68
2022-09-17T03:31:06.787Z,10.65
2022-09-17T03:32:01.985Z,10.65
2022-09-17T03:32:57.831Z,10.65
2022-09-17T03:33:53.012Z,10.75
2022-09-17T03:34:48.156Z,10.78
2022-09-17T03:35:43.315Z,10.77
2022-09-17T03:36:38.622Z,10.71
2022-09-17T03:37:34.481Z,10.65
2022-09-17T03:38:29.698Z,10.61
2022-09-17T03:39:24.822Z,10.57
2022-09-17T03:40:21.313Z,10.56
2022-09-17T03:41:16.525Z,10.54
2022-09-17T03:42:12.380Z,10.53
2022-09-17T03:43:07.540Z,10.51
2022-09-17T03:44:02.859Z,10.48
2022-09-17T03:44:58.504Z,10.49
2022-09-17T03:45:53.807Z,10.53
2022-09-17T03:46:49.831Z,10.59
2022-09-17T03:47:44.857Z,10.62
2022-09-17T03:48:40.318Z,10.66
2022-09-17T03:49:36.058Z,10.68
2022-09-17T03:50:31.336Z,10.66
2022-09-17T03:51:26.731Z,10.60
2022-09-17T03:52:21.858Z,10.57
2022-09-17T03:53:16.983Z,10.52
2022-09-17T03:54:12.034Z,10.46
2022-09-17T03:55:07.060Z,10.41
2022-09-17T03:56:05.603Z,10.36
2022-09-17T03:57:00.773Z,10.39
2022-09-17T03:57:56.062Z,10.50
2022-09-17T03:58:51.280Z,10.54
2022-09-17T03:59:46.300Z,10.55
2022-09-17T04:00:41.303Z,10.49
2022-09-17T04:01:36.429Z,10.50
2022-09-17T04:02:31.425Z,10.49
2022-09-17T04:03:26.429Z,10.47
2022-09-17T04:04:21.588Z,10.49
2022-09-17T04:05:16.639Z,10.51
2022-09-17T04:06:11.685Z,10.55
2022-09-17T04:07:06.791Z,10.58
2022-09-17T04:08:01.850Z,10.62
2022-09-17T04:08:57.018Z,10.62
2022-09-17T04:09:51.891Z,10.60
2022-09-17T04:10:46.956Z,10.51
2022-09-17T04:11:41.944Z,10.47
2022-09-17T04:12:37.010Z,10.39
2022-09-17T04:13:32.033Z,10.32
2022-09-17T04:14:27.051Z,10.25
2022-09-17T04:15:22.095Z,10.15
2022-09-17T04:16:17.173Z,10.13
2022-09-17T04:17:12.124Z,10.15
2022-09-17T04:18:07.139Z,10.20
2022-09-17T04:19:02.153Z,10.23
2022-09-17T04:19:57.235Z,10.23
2022-09-17T04:20:52.235Z,10.22
2022-09-17T04:21:47.244Z,10.22
2022-09-17T04:22:42.285Z,10.22
2022-09-17T04:23:37.314Z,10.21
2022-09-17T04:24:32.576Z,10.20
2022-09-17T04:25:27.732Z,10.16
2022-09-17T04:26:23.030Z,10.10
2022-09-17T04:27:18.172Z,10.11
2022-09-17T04:28:13.459Z,10.21
2022-09-17T04:29:08.586Z,10.28
2022-09-17T04:30:03.771Z,10.28
2022-09-17T04:30:59.090Z,10.28
2022-09-17T04:31:54.389Z,10.24
2022-09-17T04:32:49.466Z,10.21
2022-09-17T04:33:44.613Z,10.17
2022-09-17T04:34:39.789Z,10.15
2022-09-17T04:35:34.925Z,10.09
2022-09-17T04:36:30.352Z,10.04
2022-09-17T04:37:25.359Z,9.98
2022-09-17T04:38:20.638Z,9.92
2022-09-17T04:39:15.722Z,9.86
2022-09-17T04:40:11.242Z,9.80
2022-09-17T04:41:06.296Z,9.78
2022-09-17T04:42:01.529Z,9.76
2022-09-17T04:42:56.748Z,9.73
2022-09-17T04:43:51.977Z,9.71
2022-09-17T04:44:47.222Z,9.74
2022-09-17T04:45:42.479Z,9.83
2022-09-17T04:46:37.724Z,9.89
2022-09-17T04:47:32.867Z,9.95
2022-09-17T04:48:28.204Z,9.96
2022-09-17T04:49:23.257Z,9.95
2022-09-17T04:50:18.380Z,9.90
2022-09-17T04:51:13.512Z,9.90
2022-09-17T04:52:08.795Z,9.88
2022-09-17T04:53:04.336Z,9.85
2022-09-17T04:53:59.324Z,9.83
2022-09-17T04:54:54.573Z,9.82
2022-09-17T04:55:49.733Z,9.80
2022-09-17T04:56:45.029Z,9.76
2022-09-17T04:57:40.231Z,9.75
2022-09-17T04:58:38.012Z,9.74
2022-09-17T04:59:33.082Z,9.78
2022-09-17T05:00:28.270Z,9.80
2022-09-17T05:01:23.511Z,9.82
2022-09-17T05:02:18.921Z,9.81
2022-09-17T05:03:14.151Z,9.88
2022-09-17T05:04:09.144Z,9.92
2022-09-17T05:05:04.246Z,9.95
2022-09-17T05:05:59.309Z,9.96
2022-09-17T05:06:54.418Z,9.94
2022-09-17T05:07:49.538Z,9.92
2022-09-17T05:08:44.534Z,9.93
2022-09-17T05:09:39.618Z,9.89
2022-09-17T05:10:34.611Z,9.86
2022-09-17T05:11:29.854Z,9.81
2022-09-17T05:12:24.964Z,9.78
2022-09-17T05:13:20.121Z,9.80
2022-09-17T05:14:15.087Z,9.84
2022-09-17T05:15:11.565Z,9.98
2022-09-17T05:16:06.672Z,10.09
2022-09-17T05:17:01.613Z,10.16
2022-09-17T05:17:56.876Z,10.15
2022-09-17T05:18:51.916Z,10.12
2022-09-17T05:19:46.933Z,10.09
2022-09-17T05:20:41.997Z,10.05
2022-09-17T05:21:37.012Z,10.02
2022-09-17T05:22:32.129Z,10.00
2022-09-17T05:23:27.316Z,9.99
2022-09-17T05:24:22.288Z,9.97
2022-09-17T05:25:17.469Z,9.95
2022-09-17T05:26:12.503Z,9.92
2022-09-17T05:27:07.539Z,9.91
2022-09-17T05:28:02.586Z,9.91
2022-09-17T05:28:57.822Z,9.94
2022-09-17T05:29:52.609Z,10.03
2022-09-17T05:30:47.703Z,10.07
2022-09-17T05:31:42.856Z,10.04
2022-09-17T05:32:37.824Z,10.01
2022-09-17T05:33:32.957Z,10.00
2022-09-17T05:34:28.045Z,9.95
2022-09-17T05:35:23.067Z,9.91
2022-09-17T05:36:18.125Z,9.89
2022-09-17T05:37:13.136Z,9.89
2022-09-17T05:38:08.303Z,9.85
2022-09-17T05:39:03.505Z,9.83
2022-09-17T05:39:58.868Z,9.84
2022-09-17T05:40:54.167Z,9.84
2022-09-17T05:41:49.315Z,9.86
2022-09-17T05:42:44.601Z,9.83
2022-09-17T05:43:39.786Z,9.88
2022-09-17T05:44:34.829Z,9.91
2022-09-17T05:45:29.889Z,9.91
2022-09-17T05:46:24.912Z,9.88
2022-09-17T05:47:19.950Z,9.87
2022-09-17T05:48:15.001Z,9.87
2022-09-17T05:49:10.061Z,9.86
2022-09-17T05:50:05.131Z,9.84
2022-09-17T05:51:00.370Z,9.82
2022-09-17T05:51:55.505Z,9.79
2022-09-17T05:52:50.603Z,9.79
2022-09-17T05:53:45.691Z,9.80
2022-09-17T05:54:40.739Z,9.83
2022-09-17T05:55:35.835Z,9.84
2022-09-17T05:56:30.862Z,9.83
2022-09-17T05:57:26.101Z,9.85
2022-09-17T05:58:21.118Z,9.92
2022-09-17T05:59:16.199Z,9.98
2022-09-17T06:00:11.252Z,10.00
2022-09-17T06:01:07.086Z,10.03
2022-09-17T06:03:29.942Z,9.67
2022-09-17T06:04:25.109Z,9.85
2022-09-17T06:05:20.431Z,9.91
2022-09-17T06:06:15.758Z,9.93
2022-09-17T06:07:11.287Z,9.96
2022-09-17T06:08:06.551Z,9.97
2022-09-17T06:09:01.960Z,9.98
2022-09-17T06:09:57.298Z,9.99
2022-09-17T06:10:52.671Z,10.00
2022-09-17T06:11:48.055Z,10.05
2022-09-17T06:12:43.449Z,10.17
2022-09-17T06:13:38.952Z,10.24
2022-09-17T06:14:34.268Z,10.28
2022-09-17T06:15:29.704Z,10.24
2022-09-17T06:16:25.227Z,10.24
2022-09-17T06:17:22.286Z,10.27
2022-09-17T06:18:16.000Z,10.27
2022-09-17T06:19:11.474Z,10.29
2022-09-17T06:20:07.014Z,10.37
2022-09-17T06:21:02.418Z,10.44
2022-09-17T06:21:57.855Z,10.47
2022-09-17T06:22:53.406Z,10.48
2022-09-17T06:23:48.793Z,10.46
2022-09-17T06:24:44.243Z,10.39
2022-09-17T06:25:39.651Z,10.38
2022-09-17T06:26:35.091Z,10.37
2022-09-17T06:27:30.651Z,10.38
2022-09-17T06:28:26.080Z,10.42
2022-09-17T06:29:21.490Z,10.52
2022-09-17T06:30:16.922Z,10.61
2022-09-17T06:31:12.481Z,10.71
2022-09-17T06:32:07.968Z,10.74
2022-09-17T06:33:03.400Z,10.80
2022-09-17T06:33:58.816Z,10.85
2022-09-17T06:34:54.362Z,10.88
2022-09-17T06:35:49.702Z,10.89
2022-09-17T06:36:45.107Z,10.88
2022-09-17T06:37:40.578Z,10.90
2022-09-17T06:38:35.979Z,10.88
2022-09-17T06:39:31.493Z,10.81
2022-09-17T06:40:26.928Z,10.76
2022-09-17T06:41:22.246Z,10.82
2022-09-17T06:42:17.645Z,10.74
2022-09-17T06:43:13.233Z,10.77
2022-09-17T06:44:08.663Z,10.79
2022-09-17T06:45:08.545Z,10.82
2022-09-17T06:46:00.677Z,10.93
2022-09-17T06:46:55.259Z,10.92
2022-09-17T06:47:50.653Z,10.96
2022-09-17T06:48:45.923Z,10.94
2022-09-17T06:49:41.533Z,10.95
2022-09-17T06:50:41.962Z,10.97
2022-09-17T06:51:33.402Z,11.02
2022-09-17T06:52:27.870Z,11.02
2022-09-17T06:53:23.404Z,11.02
2022-09-17T06:54:18.851Z,11.00
2022-09-17T06:55:14.288Z,11.03
2022-09-17T06:56:09.836Z,10.99
2022-09-17T06:57:05.132Z,10.94
2022-09-17T06:58:00.553Z,10.91
2022-09-17T06:58:56.016Z,10.92
2022-09-17T06:59:51.459Z,10.93
2022-09-17T07:00:46.946Z,10.93
2022-09-17T07:01:42.408Z,10.90
2022-09-17T07:02:37.829Z,10.87
2022-09-17T07:03:33.260Z,10.88
2022-09-17T07:04:28.680Z,10.88
2022-09-17T07:05:24.115Z,10.91
2022-09-17T07:06:19.508Z,10.89
2022-09-17T07:07:14.940Z,10.87
2022-09-17T07:08:10.356Z,10.86
2022-09-17T07:09:10.403Z,10.86
2022-09-17T07:10:02.248Z,10.82
2022-09-17T07:10:56.727Z,10.75
2022-09-17T07:11:52.412Z,10.73
2022-09-17T07:12:49.914Z,10.74
2022-09-17T07:13:43.242Z,10.76
2022-09-17T07:14:38.713Z,10.72
2022-09-17T07:15:34.270Z,10.65
2022-09-17T07:16:29.597Z,10.59
2022-09-17T07:17:24.901Z,10.56
2022-09-17T07:18:20.306Z,10.56
2022-09-17T07:19:15.730Z,10.55
2022-09-17T07:20:11.351Z,10.59
2022-09-17T07:21:06.634Z,10.67
2022-09-17T07:22:02.180Z,10.77
2022-09-17T07:22:57.642Z,10.86
2022-09-17T07:23:53.176Z,10.94
2022-09-17T07:24:48.576Z,11.01
2022-09-17T07:25:43.996Z,11.07
2022-09-17T07:26:39.249Z,11.05
2022-09-17T07:27:34.673Z,11.05
2022-09-17T07:28:30.186Z,11.03
2022-09-17T07:29:25.773Z,11.00
2022-09-17T07:30:21.268Z,10.99
2022-09-17T07:31:17.056Z,11.02
2022-09-17T07:32:11.853Z,11.06
2022-09-17T07:33:06.884Z,11.11
2022-09-17T07:34:01.899Z,11.13
2022-09-17T07:34:56.997Z,11.16
2022-09-17T07:35:52.086Z,11.22
2022-09-17T07:36:47.151Z,11.25
2022-09-17T07:37:42.177Z,11.23
2022-09-17T07:38:37.178Z,11.21
2022-09-17T07:39:32.293Z,11.16
2022-09-17T07:40:27.389Z,11.14
2022-09-17T07:41:22.339Z,11.17
2022-09-17T07:42:17.372Z,11.16
2022-09-17T07:43:12.416Z,11.13
2022-09-17T07:44:07.428Z,11.13
2022-09-17T07:45:02.578Z,11.15
2022-09-17T07:46:01.095Z,11.12
2022-09-17T07:46:56.110Z,11.09
2022-09-17T07:47:51.192Z,11.07
2022-09-17T07:48:46.189Z,11.04
2022-09-17T07:49:42.161Z,10.97
2022-09-17T07:50:37.733Z,10.95
2022-09-17T07:51:33.028Z,10.91
2022-09-17T07:52:28.420Z,10.95
2022-09-17T07:53:23.981Z,10.99
2022-09-17T07:54:19.391Z,11.08
2022-09-17T07:55:14.948Z,11.20
2022-09-17T07:56:12.013Z,11.27
2022-09-17T07:57:05.728Z,11.30
2022-09-17T07:58:01.195Z,11.31
2022-09-17T07:58:56.629Z,11.29
2022-09-17T07:59:52.042Z,11.28
2022-09-17T08:00:47.486Z,11.30
2022-09-17T08:01:43.045Z,11.35
2022-09-17T08:02:38.021Z,11.38
2022-09-17T08:03:32.994Z,11.39
2022-09-17T08:04:28.135Z,11.39
2022-09-17T08:05:23.156Z,11.38
2022-09-17T08:06:18.203Z,11.39
2022-09-17T08:07:13.202Z,11.35
2022-09-17T08:08:08.262Z,11.35
2022-09-17T08:09:05.293Z,11.34
2022-09-17T08:10:00.291Z,11.29
2022-09-17T08:10:55.336Z,11.27
2022-09-17T08:11:57.535Z,11.24
2022-09-17T08:12:47.602Z,11.17
2022-09-17T08:13:42.125Z,11.18
2022-09-17T08:14:37.549Z,11.22
2022-09-17T08:15:32.980Z,11.27
2022-09-17T08:16:28.616Z,11.27
2022-09-17T08:17:24.168Z,11.28
2022-09-17T08:18:19.434Z,11.30
2022-09-17T08:19:14.866Z,11.31
2022-09-17T08:20:10.306Z,11.36
2022-09-17T08:21:05.909Z,11.40
2022-09-17T08:22:01.269Z,11.46
2022-09-17T08:22:56.749Z,11.51
2022-09-17T08:23:52.245Z,11.60
2022-09-17T08:24:47.816Z,11.67
2022-09-17T08:25:42.866Z,11.73
2022-09-17T08:26:37.918Z,11.70
2022-09-17T08:27:32.955Z,11.67
2022-09-17T08:28:28.165Z,11.67
2022-09-17T08:29:23.253Z,11.69
2022-09-17T08:30:18.357Z,11.73
2022-09-17T08:31:13.445Z,11.82
2022-09-17T08:32:10.477Z,11.95
2022-09-17T08:33:05.723Z,12.07
2022-09-17T08:34:00.728Z,12.18
2022-09-17T08:34:58.217Z,12.36
2022-09-17T08:35:50.881Z,12.46
2022-09-17T08:36:45.891Z,12.61
2022-09-17T08:37:40.971Z,12.69
2022-09-17T08:38:38.220Z,12.76
2022-09-17T08:39:31.331Z,12.76
2022-09-17T08:40:26.949Z,12.78
2022-09-17T08:41:22.382Z,12.70
2022-09-17T08:42:17.793Z,12.64
2022-09-17T08:43:13.199Z,12.56
2022-09-17T08:44:08.750Z,12.51
2022-09-17T08:45:04.261Z,12.44
2022-09-17T08:45:59.748Z,12.32
2022-09-17T08:46:55.293Z,12.32
2022-09-17T08:47:50.778Z,12.31
2022-09-17T08:48:46.101Z,12.28
2022-09-17T08:49:41.738Z,12.17
2022-09-17T08:50:37.070Z,12.01
2022-09-17T08:51:32.706Z,11.92
2022-09-17T08:52:28.051Z,11.85
2022-09-17T08:53:23.596Z,11.78
2022-09-17T08:54:18.921Z,11.75
2022-09-17T08:55:18.350Z,11.74
2022-09-17T08:56:13.806Z,11.71
2022-09-17T08:57:09.296Z,11.72
2022-09-17T08:58:04.936Z,11.72
2022-09-17T08:59:00.455Z,11.70
2022-09-17T08:59:55.978Z,11.73
2022-09-17T09:00:51.459Z,11.76
2022-09-17T09:01:47.039Z,11.74
2022-09-17T09:02:42.416Z,11.76
2022-09-17T09:03:37.683Z,11.86
2022-09-17T09:04:33.063Z,11.91
2022-09-17T09:05:28.699Z,11.99
2022-09-17T09:06:24.082Z,12.09
2022-09-17T09:07:19.478Z,12.17
2022-09-17T09:08:15.004Z,12.27
2022-09-17T09:09:10.111Z,12.56
2022-09-17T09:10:05.250Z,12.89
2022-09-17T09:11:00.403Z,13.10
2022-09-17T09:11:55.513Z,13.09
2022-09-17T09:12:50.651Z,13.01
2022-09-17T09:13:45.635Z,13.00
2022-09-17T09:14:40.779Z,12.97
2022-09-17T09:15:35.740Z,12.94
2022-09-17T09:16:30.941Z,12.94
2022-09-17T09:17:26.011Z,12.91
2022-09-17T09:18:24.252Z,12.81
2022-09-17T09:19:19.490Z,12.67
2022-09-17T09:20:14.969Z,12.48
2022-09-17T09:21:10.489Z,12.34
2022-09-17T09:22:05.956Z,12.18
2022-09-17T09:23:01.416Z,12.15
2022-09-17T09:23:56.796Z,12.09
2022-09-17T09:24:52.394Z,12.06
2022-09-17T09:25:48.005Z,11.98
2022-09-17T09:26:43.305Z,11.90
2022-09-17T09:27:38.737Z,11.77
2022-09-17T09:28:34.173Z,11.65
2022-09-17T09:29:29.810Z,11.63
2022-09-17T09:30:25.287Z,11.64
2022-09-17T09:31:20.882Z,11.68
2022-09-17T09:32:16.828Z,11.70
2022-09-17T09:33:10.834Z,11.78
2022-09-17T09:34:05.966Z,11.89
2022-09-17T09:35:00.963Z,11.95
2022-09-17T09:35:56.032Z,11.92
2022-09-17T09:36:51.143Z,11.88
2022-09-17T09:37:46.200Z,11.83
2022-09-17T09:38:41.262Z,11.81
2022-09-17T09:39:41.248Z,11.84
2022-09-17T09:40:32.452Z,11.87
2022-09-17T09:41:28.486Z,11.92
2022-09-17T09:42:23.552Z,11.90
2022-09-17T09:43:18.630Z,11.83
2022-09-17T09:44:13.845Z,11.78
2022-09-17T09:45:08.976Z,11.72
2022-09-17T09:46:04.455Z,11.76
2022-09-17T09:47:00.085Z,11.82
2022-09-17T09:47:55.491Z,11.88
2022-09-17T09:48:50.990Z,11.99
2022-09-17T09:49:46.451Z,12.07
2022-09-17T09:51:04.547Z,12.13
2022-09-17T09:51:38.529Z,12.07
2022-09-17T09:52:32.938Z,12.06
2022-09-17T09:53:28.426Z,12.07
2022-09-17T09:54:24.033Z,12.07
2022-09-17T09:55:21.353Z,12.05
2022-09-17T09:56:15.838Z,11.97
2022-09-17T09:57:10.348Z,11.94
2022-09-17T09:58:05.353Z,11.96
2022-09-17T09:59:00.427Z,11.98
2022-09-17T09:59:55.406Z,11.99
2022-09-17T10:00:50.425Z,11.99
2022-09-17T10:01:45.611Z,11.95
2022-09-17T10:02:40.576Z,11.90
2022-09-17T10:03:35.650Z,11.81
2022-09-17T10:04:32.710Z,11.74
2022-09-17T10:05:27.725Z,11.69
2022-09-17T10:06:22.785Z,11.66
2022-09-17T10:07:17.873Z,11.63
2022-09-17T10:08:12.912Z,11.63
2022-09-17T10:09:08.008Z,11.74
2022-09-17T10:10:03.133Z,12.04
2022-09-17T10:10:58.255Z,12.63
2022-09-17T10:11:54.066Z,12.88
2022-09-17T10:12:49.569Z,12.89
2022-09-17T10:13:45.034Z,12.90
2022-09-17T10:14:40.532Z,12.87
2022-09-17T10:15:35.880Z,12.77
2022-09-17T10:16:31.004Z,12.70
2022-09-17T10:17:26.046Z,12.66
2022-09-17T10:18:21.070Z,12.64
2022-09-17T10:19:16.098Z,12.66
2022-09-17T10:20:11.354Z,12.67
2022-09-17T10:21:06.280Z,12.71
2022-09-17T10:22:01.303Z,12.73
2022-09-17T10:22:56.345Z,12.74
2022-09-17T10:23:51.351Z,12.72
2022-09-17T10:24:46.386Z,12.65
2022-09-17T10:25:41.428Z,12.63
2022-09-17T10:26:36.851Z,12.63
2022-09-17T10:27:32.235Z,12.56
2022-09-17T10:28:27.545Z,12.52
2022-09-17T10:29:23.039Z,12.58
2022-09-17T10:30:18.595Z,12.69
2022-09-17T10:31:13.689Z,12.77
2022-09-17T10:32:08.707Z,12.86
2022-09-17T10:33:03.695Z,12.98
2022-09-17T10:33:58.824Z,13.18
2022-09-17T10:34:53.834Z,13.37
2022-09-17T10:35:48.933Z,13.48
2022-09-17T10:36:44.045Z,13.60
2022-09-17T10:37:39.297Z,13.65
2022-09-17T10:38:34.142Z,13.69
2022-09-17T10:39:29.169Z,13.82
2022-09-17T10:40:24.387Z,13.87
2022-09-17T10:41:19.370Z,13.89
2022-09-17T10:42:14.365Z,13.99
2022-09-17T10:43:09.481Z,14.13
2022-09-17T10:44:06.654Z,14.46
2022-09-17T10:45:02.225Z,14.68
2022-09-17T10:45:57.597Z,14.74
2022-09-17T10:46:53.114Z,14.80
2022-09-17T10:47:48.421Z,14.95
2022-09-17T10:48:43.830Z,15.06
2022-09-17T10:49:39.393Z,15.21
2022-09-17T10:50:34.800Z,15.20
2022-09-17T10:51:30.172Z,15.12
2022-09-17T10:52:25.840Z,15.34
2022-09-17T10:53:21.226Z,15.55
2022-09-17T10:54:16.954Z,15.77
2022-09-17T10:55:12.266Z,15.97
2022-09-17T10:56:07.779Z,15.87
2022-09-17T10:57:03.317Z,15.74
2022-09-17T10:57:58.316Z,15.65
2022-09-17T10:58:53.433Z,15.61
2022-09-17T10:59:48.438Z,15.49
2022-09-17T11:00:43.722Z,15.24
2022-09-17T11:01:38.828Z,14.95
2022-09-17T11:02:33.801Z,14.74
2022-09-17T11:03:28.699Z,14.64
2022-09-17T11:04:23.740Z,14.60
2022-09-17T11:05:18.777Z,14.56
2022-09-17T11:06:14.725Z,14.39
2022-09-17T11:07:10.354Z,14.20
2022-09-17T11:08:05.401Z,13.98
2022-09-17T11:09:00.437Z,13.78
2022-09-17T11:09:55.551Z,13.58
2022-09-17T11:10:51.602Z,13.36
2022-09-17T11:11:47.084Z,13.27
2022-09-17T11:12:42.572Z,13.21
2022-09-17T11:13:38.052Z,13.14
2022-09-17T11:14:33.670Z,13.06
2022-09-17T11:15:29.150Z,13.02
2022-09-17T11:16:24.554Z,12.97
2022-09-17T11:17:20.024Z,12.93
2022-09-17T11:18:15.433Z,12.89
2022-09-17T11:19:10.900Z,12.87
2022-09-17T11:20:06.379Z,12.82
2022-09-17T11:21:01.871Z,12.79
2022-09-17T11:21:59.420Z,12.80
2022-09-17T11:22:54.709Z,13.02
2022-09-17T11:23:49.844Z,13.26
2022-09-17T11:24:44.842Z,13.58
2022-09-17T11:25:39.842Z,13.68
2022-09-17T11:26:34.875Z,13.71
2022-09-17T11:27:29.852Z,13.70
2022-09-17T11:28:24.848Z,13.83
2022-09-17T11:29:19.922Z,13.74
2022-09-17T11:30:15.788Z,13.58
2022-09-17T11:31:10.982Z,13.45
2022-09-17T11:32:05.846Z,13.34
2022-09-17T11:33:00.868Z,13.21
2022-09-17T11:33:55.998Z,13.07
2022-09-17T11:34:51.013Z,12.93
2022-09-17T11:35:46.060Z,12.75
2022-09-17T11:36:41.127Z,12.56
2022-09-17T11:37:36.166Z,12.39
2022-09-17T11:38:31.244Z,12.29
2022-09-17T11:39:26.344Z,12.16
2022-09-17T11:40:21.392Z,12.13
2022-09-17T11:41:16.442Z,12.14
2022-09-17T11:42:11.875Z,12.14
2022-09-17T11:43:07.362Z,12.10
2022-09-17T11:44:02.884Z,12.09
2022-09-17T11:44:58.304Z,12.09
2022-09-17T11:45:53.837Z,12.16
2022-09-17T11:46:49.621Z,12.29
2022-09-17T11:47:44.727Z,12.39
2022-09-17T11:48:40.250Z,12.46
2022-09-17T11:49:35.698Z,12.54
2022-09-17T11:50:31.258Z,12.73
2022-09-17T11:51:26.803Z,12.98
2022-09-17T11:52:22.239Z,13.06
2022-09-17T11:53:21.020Z,13.12
2022-09-17T11:54:16.438Z,13.04
2022-09-17T11:55:11.660Z,12.96
2022-09-17T11:56:06.656Z,12.93
2022-09-17T11:57:02.407Z,13.06